createdAt,value
2018-07-11T06:56:16.948Z,7.40
2018-07-11T06:58:45.572Z,7.20
2018-07-11T07:01:16.614Z,7.53
2018-07-11T07:03:45.741Z,7.67
2018-07-11T07:06:14.329Z,7.70
2018-07-11T07:08:43.794Z,8.40
2018-07-11T07:11:12.479Z,7.97
2018-07-11T07:13:41.244Z,8.35
2018-07-11T07:16:10.923Z,8.13
2018-07-11T07:18:39.579Z,8.28
2018-07-11T07:21:08.364Z,7.90
2018-07-11T07:23:37.773Z,8.23
2018-07-11T07:26:06.460Z,7.12
2018-07-11T07:28:35.164Z,7.80
2018-07-11T07:31:03.922Z,6.72
2018-07-11T07:33:32.655Z,7.30
2018-07-11T07:36:01.374Z,7.03
2018-07-11T07:38:30.091Z,6.90
2018-07-11T07:41:00.457Z,6.40
2018-07-11T07:43:29.041Z,7.08
2018-07-11T07:45:57.597Z,7.22
2018-07-11T07:48:27.091Z,7.17
2018-07-11T07:50:59.104Z,7.22
2018-07-11T07:53:30.769Z,7.28
2018-07-11T07:56:00.310Z,6.53
2018-07-11T07:58:29.081Z,6.62
2018-07-11T08:00:58.948Z,7.53
2018-07-11T08:03:29.481Z,6.62
2018-07-11T08:06:01.676Z,6.75
2018-07-11T08:08:30.340Z,7.10
2018-07-11T08:11:01.635Z,6.28
2018-07-11T08:13:34.607Z,7.20
2018-07-11T08:16:04.458Z,6.25
2018-07-11T08:18:36.149Z,6.40
2018-07-11T08:21:05.594Z,6.80
2018-07-11T08:23:45.977Z,6.28
2018-07-11T08:26:27.024Z,7.22
2018-07-11T08:29:11.025Z,6.58
2018-07-11T08:32:49.406Z,7.10
2018-07-11T08:35:39.135Z,7.42
2018-07-11T08:38:18.980Z,7.05
2018-07-11T08:41:18.491Z,7.42
2018-07-11T08:44:33.035Z,7.17
2018-07-11T08:47:16.047Z,8.08
2018-07-11T08:49:56.425Z,6.00
2018-07-11T08:52:35.209Z,6.90
2018-07-11T08:55:30.100Z,5.80
2018-07-11T09:00:15.656Z,6.17
2018-07-11T09:02:55.263Z,6.62
2018-07-11T09:05:33.246Z,7.15
2018-07-11T09:10:16.841Z,6.85
2018-07-11T09:12:54.996Z,7.20
2018-07-11T09:15:41.405Z,7.65
2018-07-11T09:18:20.748Z,7.20
2018-07-11T09:21:06.552Z,6.50
2018-07-11T09:24:40.984Z,6.40
2018-07-11T09:27:11.202Z,6.60
2018-07-11T09:29:41.271Z,5.72
2018-07-11T09:32:10.581Z,5.28
2018-07-11T09:34:40.509Z,5.53
2018-07-11T09:37:09.594Z,4.97
2018-07-11T09:39:39.628Z,5.22
2018-07-11T09:42:10.990Z,5.12
2018-07-11T09:44:40.248Z,4.92
2018-07-11T09:47:14.613Z,5.17
2018-07-11T09:49:46.796Z,4.80
2018-07-11T09:52:16.582Z,5.00
2018-07-11T09:54:45.284Z,5.30
2018-07-11T09:57:13.882Z,4.83
2018-07-11T09:59:43.239Z,4.62
2018-07-11T10:02:11.897Z,4.28
2018-07-11T10:04:41.823Z,4.40
2018-07-11T10:07:13.695Z,4.47
2018-07-11T10:09:47.075Z,4.45
2018-07-11T10:12:18.523Z,4.40
2018-07-11T10:14:50.206Z,4.70
2018-07-11T10:17:20.307Z,4.05
2018-07-11T10:19:49.849Z,4.62
2018-07-11T10:22:19.856Z,4.80
2018-07-11T10:24:49.986Z,4.80
2018-07-11T10:27:19.089Z,4.90
2018-07-11T10:29:48.550Z,4.53
2018-07-11T10:32:17.190Z,4.30
2018-07-11T10:34:47.311Z,4.75
2018-07-11T10:37:17.307Z,5.05
2018-07-11T10:39:47.394Z,5.60
2018-07-11T10:42:18.885Z,4.80
2018-07-11T10:44:51.085Z,4.50
2018-07-11T10:47:22.046Z,4.97
2018-07-11T10:49:54.407Z,5.37
2018-07-11T10:52:24.354Z,5.30
2018-07-11T10:54:55.224Z,5.87
2018-07-11T10:57:26.745Z,6.45
2018-07-11T10:59:56.460Z,7.45
2018-07-11T11:02:26.736Z,8.03
2018-07-11T11:04:58.732Z,8.25
2018-07-11T11:07:29.367Z,8.28
2018-07-11T11:09:59.395Z,8.78
2018-07-11T11:12:29.630Z,8.80
2018-07-11T11:14:59.091Z,11.70
2018-07-11T11:17:31.129Z,11.97
2018-07-11T11:20:01.562Z,12.70
2018-07-11T11:22:30.702Z,12.55
2018-07-11T11:25:00.070Z,13.53
2018-07-11T11:27:32.910Z,14.80
2018-07-11T11:30:01.907Z,16.75
2018-07-11T11:32:33.237Z,15.08
2018-07-11T11:35:03.308Z,15.15
2018-07-11T11:37:33.331Z,13.58
2018-07-11T11:40:03.991Z,14.03
2018-07-11T11:42:34.819Z,13.35
2018-07-11T11:45:07.395Z,14.07
2018-07-11T11:47:37.175Z,12.68
2018-07-11T11:50:05.839Z,10.80
2018-07-11T11:52:35.157Z,11.95
2018-07-11T11:55:06.414Z,10.40
2018-07-11T11:57:36.378Z,11.33
2018-07-11T12:00:06.981Z,10.55
2018-07-11T12:02:39.894Z,10.23
2018-07-11T12:05:09.547Z,11.80
2018-07-11T12:07:40.918Z,11.65
2018-07-11T12:10:10.228Z,11.45
2018-07-11T12:12:38.747Z,11.88
2018-07-11T12:15:10.749Z,11.38
2018-07-11T12:17:41.275Z,12.30
2018-07-11T12:20:12.106Z,12.47
2018-07-11T12:22:43.668Z,11.55
2018-07-11T12:25:12.908Z,12.70
2018-07-11T12:27:46.736Z,12.82
2018-07-11T12:30:17.451Z,12.58
2018-07-11T12:32:47.574Z,12.47
2018-07-11T12:35:17.605Z,12.82
2018-07-11T12:37:49.565Z,13.13
2018-07-11T12:40:20.901Z,12.35
2018-07-11T12:42:50.267Z,13.20
2018-07-11T12:45:25.513Z,13.03
2018-07-11T12:48:04.754Z,13.20
2018-07-11T12:50:35.421Z,13.93
2018-07-11T12:53:04.798Z,15.35
2018-07-11T12:55:36.555Z,15.38
2018-07-11T12:58:08.279Z,15.58
2018-07-11T13:00:39.147Z,16.05
2018-07-11T13:03:07.659Z,16.05
2018-07-11T13:05:40.107Z,17.12
2018-07-11T13:08:11.133Z,17.37
2018-07-11T13:10:43.555Z,17.37
2018-07-11T13:13:19.705Z,18.05
2018-07-11T13:15:48.705Z,18.73
2018-07-11T13:18:17.836Z,19.40
2018-07-11T13:20:46.810Z,17.05
2018-07-11T13:23:16.261Z,20.20
2018-07-11T13:25:44.842Z,20.40
2018-07-11T13:28:13.830Z,19.82
2018-07-11T13:30:42.964Z,19.85
2018-07-11T13:33:11.653Z,17.35
2018-07-11T13:35:40.205Z,15.43
2018-07-11T13:38:11.757Z,15.75
2018-07-11T13:40:40.386Z,14.53
2018-07-11T13:43:09.669Z,14.63
2018-07-11T13:45:38.261Z,12.33
2018-07-11T13:48:07.224Z,12.18
2018-07-11T13:50:36.520Z,11.50
2018-07-11T13:53:05.154Z,10.53
2018-07-11T13:55:33.739Z,10.68
2018-07-11T13:58:03.061Z,10.35
2018-07-11T14:00:32.620Z,9.18
2018-07-11T14:03:01.199Z,9.55
2018-07-11T14:05:29.797Z,9.90
2018-07-11T14:07:58.376Z,10.03
2018-07-11T14:10:27.068Z,10.30
2018-07-11T14:12:56.362Z,9.95
2018-07-11T14:15:25.002Z,9.18
2018-07-11T14:17:55.247Z,8.90
2018-07-11T14:20:24.534Z,8.33
2018-07-11T14:22:53.055Z,6.60
2018-07-11T14:25:21.732Z,6.72
2018-07-11T14:27:51.125Z,6.75
2018-07-11T14:30:24.517Z,6.67
2018-07-11T14:32:59.328Z,7.30
2018-07-11T14:35:27.960Z,7.70
2018-07-11T14:37:56.560Z,8.05
2018-07-11T14:40:26.042Z,7.90
2018-07-11T14:42:54.634Z,8.10
2018-07-11T14:45:24.164Z,7.97
2018-07-11T14:47:58.146Z,8.63
2018-07-11T14:50:26.702Z,8.25
2018-07-11T14:52:55.402Z,8.68
2018-07-11T14:55:23.911Z,9.08
2018-07-11T14:57:52.409Z,8.28
2018-07-11T15:00:21.062Z,9.00
2018-07-11T15:02:49.897Z,8.40
2018-07-11T15:05:18.515Z,8.83
2018-07-11T15:07:47.440Z,10.72
2018-07-11T15:10:16.127Z,8.73
2018-07-11T15:12:44.760Z,9.20
2018-07-11T15:15:13.381Z,9.55
2018-07-11T15:17:41.956Z,9.08
2018-07-11T15:20:10.734Z,8.23
2018-07-11T15:22:39.531Z,7.90
2018-07-11T15:25:08.022Z,7.50
2018-07-11T15:27:36.658Z,7.55
2018-07-11T15:30:05.273Z,7.15
2018-07-11T15:32:33.980Z,6.87
2018-07-11T15:35:02.529Z,7.92
2018-07-11T15:37:31.043Z,7.60
2018-07-11T15:40:00.065Z,7.78
2018-07-11T15:42:29.330Z,7.83
2018-07-11T15:44:57.597Z,7.60
2018-07-11T15:47:26.142Z,7.87
2018-07-11T15:49:54.748Z,8.03
2018-07-11T15:52:25.085Z,8.18
2018-07-11T15:54:57.206Z,7.55
2018-07-11T15:57:37.456Z,8.00
2018-07-11T16:00:12.921Z,9.08
2018-07-11T16:02:46.805Z,8.95
2018-07-11T16:05:24.563Z,8.98
2018-07-11T16:07:54.286Z,9.08
2018-07-11T16:10:29.750Z,9.00
2018-07-11T16:12:58.300Z,9.40
2018-07-11T16:15:27.164Z,9.40
2018-07-11T16:17:55.711Z,9.30
2018-07-11T16:20:24.344Z,9.33
2018-07-11T16:22:53.031Z,9.35
2018-07-11T16:25:21.828Z,9.03
2018-07-11T16:27:50.357Z,9.33
2018-07-11T16:30:18.972Z,9.78
2018-07-11T16:32:47.494Z,9.50
2018-07-11T16:35:16.135Z,8.60
2018-07-11T16:37:44.828Z,8.38
2018-07-11T16:40:15.880Z,8.63
2018-07-11T16:42:44.605Z,9.43
2018-07-11T16:45:13.777Z,9.33
2018-07-11T16:47:44.151Z,8.98
2018-07-11T16:50:13.609Z,8.05
2018-07-11T16:52:42.992Z,8.43
2018-07-11T16:55:12.200Z,8.48
2018-07-11T16:57:47.119Z,8.25
2018-07-11T17:00:19.551Z,8.55
2018-07-11T17:02:52.044Z,8.40
2018-07-11T17:05:21.242Z,8.53
2018-07-11T17:07:51.834Z,9.75
2018-07-11T17:10:21.768Z,10.10
2018-07-11T17:12:58.140Z,11.08
2018-07-11T17:15:30.028Z,10.15
2018-07-11T17:17:58.686Z,11.83
2018-07-11T17:20:27.310Z,11.35
2018-07-11T17:22:57.957Z,12.20
2018-07-11T17:25:31.984Z,13.25
2018-07-11T17:28:02.534Z,13.90
2018-07-11T17:30:39.132Z,14.15
2018-07-11T17:33:11.272Z,14.55
2018-07-11T17:35:48.675Z,15.25
2018-07-11T17:38:23.253Z,16.10
2018-07-11T17:40:54.819Z,16.62
2018-07-11T17:43:37.672Z,15.18
2018-07-11T17:46:09.038Z,15.23
2018-07-11T17:48:45.519Z,14.47
2018-07-11T17:51:25.504Z,13.58
2018-07-11T17:53:56.567Z,13.93
2018-07-11T17:56:38.469Z,13.75
2018-07-11T17:59:08.947Z,13.25
2018-07-11T18:01:43.062Z,12.73
2018-07-11T18:04:17.616Z,13.08
2018-07-11T18:07:04.464Z,12.07
2018-07-11T18:09:57.170Z,12.15
2018-07-11T18:12:33.961Z,12.30
2018-07-11T18:16:12.341Z,12.78
2018-07-11T18:18:50.419Z,13.03
2018-07-11T18:22:27.818Z,12.35
2018-07-11T18:25:06.552Z,12.95
2018-07-11T18:27:47.432Z,12.40
2018-07-11T18:32:35.783Z,12.43
2018-07-11T18:37:18.431Z,11.70
2018-07-11T18:40:03.179Z,12.43
2018-07-11T18:42:44.551Z,13.32
2018-07-11T18:45:21.549Z,13.60
2018-07-11T18:48:03.343Z,13.88
2018-07-11T18:51:13.060Z,13.22
2018-07-11T18:54:10.106Z,13.88
2018-07-11T18:56:54.044Z,13.98
2018-07-11T18:59:36.375Z,14.03
2018-07-11T19:02:13.396Z,14.28
2018-07-11T19:07:56.841Z,14.38
2018-07-11T19:11:05.829Z,14.95
2018-07-11T19:13:37.513Z,15.88
2018-07-11T19:17:22.774Z,16.70
2018-07-11T19:20:07.372Z,17.25
2018-07-11T19:23:05.743Z,16.95
2018-07-11T19:25:49.033Z,16.90
2018-07-11T19:30:31.469Z,16.70
2018-07-11T19:33:11.381Z,16.62
2018-07-11T19:37:20.978Z,17.02
2018-07-11T19:40:01.651Z,15.70
2018-07-11T19:43:11.168Z,15.80
2018-07-11T19:45:50.710Z,15.55
2018-07-11T19:49:30.447Z,15.55
2018-07-11T19:52:14.340Z,16.50
2018-07-11T19:54:53.028Z,16.05
2018-07-11T19:57:22.410Z,16.00
2018-07-11T19:59:55.703Z,16.07
2018-07-11T20:02:24.384Z,16.55
2018-07-11T20:04:57.304Z,15.98
2018-07-11T20:07:26.456Z,15.65
2018-07-11T20:09:56.058Z,16.00
2018-07-11T20:12:24.750Z,15.63
2018-07-11T20:14:56.442Z,15.43
2018-07-11T20:17:25.356Z,16.85
2018-07-11T20:19:54.147Z,16.05
2018-07-11T20:22:22.848Z,14.90
2018-07-11T20:24:52.801Z,15.48
2018-07-11T20:27:22.678Z,14.80
2018-07-11T20:29:51.439Z,15.20
2018-07-11T20:32:20.736Z,15.55
2018-07-11T20:34:49.289Z,15.05
2018-07-11T20:37:17.855Z,14.83
2018-07-11T20:39:46.495Z,14.05
2018-07-11T20:42:15.676Z,14.58
2018-07-11T20:44:45.309Z,14.68
2018-07-11T20:47:15.012Z,14.40
2018-07-11T20:49:45.422Z,14.33
2018-07-11T20:52:14.890Z,14.25
2018-07-11T20:54:44.105Z,13.90
2018-07-11T20:57:13.282Z,15.18
2018-07-11T20:59:52.982Z,14.25
2018-07-11T21:02:32.656Z,14.05
2018-07-11T21:06:18.939Z,14.18
2018-07-11T21:15:19.622Z,13.55
2018-07-11T21:20:02.181Z,13.20
2018-07-11T21:22:30.843Z,13.18
2018-07-11T21:25:00.224Z,13.78
2018-07-11T21:27:31.132Z,13.70
2018-07-11T21:29:59.828Z,14.78
2018-07-11T21:32:28.927Z,14.35
2018-07-11T21:34:58.292Z,14.53
2018-07-11T21:37:28.243Z,13.80
2018-07-11T21:39:57.593Z,14.65
2018-07-11T21:42:26.257Z,15.05
2018-07-11T21:44:58.598Z,14.33
2018-07-11T21:47:28.976Z,14.87
2018-07-11T21:50:00.484Z,15.55
2018-07-11T21:52:30.187Z,15.78
2018-07-11T21:55:00.125Z,15.98
2018-07-11T21:57:31.160Z,16.30
2018-07-11T22:00:02.762Z,16.02
2018-07-11T22:02:33.219Z,16.40
2018-07-11T22:05:04.383Z,16.05
2018-07-11T22:07:33.937Z,16.65
2018-07-11T22:10:03.284Z,16.77
2018-07-11T22:12:34.704Z,17.15
2018-07-11T22:15:05.737Z,17.42
2018-07-11T22:17:45.777Z,17.85
2018-07-11T22:20:13.133Z,16.65
2018-07-11T22:22:40.526Z,17.55
2018-07-11T22:25:09.437Z,16.70
